createdAt,value
2017-12-25T05:00:41.672Z,98082.59
2017-12-25T05:01:13.352Z,98083.00
2017-12-25T05:01:45.012Z,98081.37
2017-12-25T05:02:17.322Z,98073.28
2017-12-25T05:02:48.969Z,98076.69
2017-12-25T05:03:20.611Z,98077.48
2017-12-25T05:03:52.308Z,98079.17
2017-12-25T05:04:23.947Z,98069.15
2017-12-25T05:04:55.599Z,98083.88
2017-12-25T05:05:27.244Z,98083.50
2017-12-25T05:05:58.894Z,98075.89
2017-12-25T05:06:30.539Z,98083.56
2017-12-25T05:07:02.179Z,98082.72
2017-12-25T05:07:33.823Z,98086.98
2017-12-25T05:08:05.459Z,98090.01
2017-12-25T05:08:37.094Z,98078.52
2017-12-25T05:09:08.775Z,98081.55
2017-12-25T05:09:40.415Z,98077.30
2017-12-25T05:10:12.051Z,98078.63
2017-12-25T05:10:43.687Z,98081.20
2017-12-25T05:11:15.324Z,98075.71
2017-12-25T05:11:46.974Z,98085.93
2017-12-25T05:12:18.621Z,98079.55
2017-12-25T05:12:50.256Z,98085.56
2017-12-25T05:13:21.938Z,98081.75
2017-12-25T05:13:53.579Z,98062.72
2017-12-25T05:14:25.235Z,98079.60
2017-12-25T05:14:56.871Z,98082.53
2017-12-25T05:15:28.513Z,98074.88
2017-12-25T05:16:00.148Z,98078.33
2017-12-25T05:16:31.782Z,98081.27
2017-12-25T05:17:03.423Z,98079.13
2017-12-25T05:17:35.107Z,98075.30
2017-12-25T05:18:06.743Z,98077.05
2017-12-25T05:18:38.396Z,98077.48
2017-12-25T05:19:10.036Z,98070.66
2017-12-25T05:19:41.680Z,98077.91
2017-12-25T05:20:13.324Z,98078.71
2017-12-25T05:20:44.967Z,98067.38
2017-12-25T05:21:16.608Z,98079.12
2017-12-25T05:21:48.275Z,98071.88
2017-12-25T05:22:19.915Z,98073.96
2017-12-25T05:22:51.608Z,98075.66
2017-12-25T05:23:23.252Z,98083.74
2017-12-25T05:23:54.895Z,98064.30
2017-12-25T05:24:26.539Z,98078.20
2017-12-25T05:24:58.180Z,98071.77
2017-12-25T05:25:29.824Z,98074.69
2017-12-25T05:26:01.460Z,98070.48
2017-12-25T05:26:33.123Z,98083.62
2017-12-25T05:27:04.767Z,98083.14
2017-12-25T05:27:36.414Z,98078.50
2017-12-25T05:28:08.100Z,98083.20
2017-12-25T05:28:39.744Z,98081.08
2017-12-25T05:29:11.383Z,98069.22
2017-12-25T05:29:43.019Z,98083.08
2017-12-25T05:30:14.660Z,98079.23
2017-12-25T05:30:46.302Z,98079.19
2017-12-25T05:31:17.944Z,98082.95
2017-12-25T05:31:49.635Z,98079.91
2017-12-25T05:32:21.279Z,98082.39
2017-12-25T05:32:52.916Z,98073.38
2017-12-25T05:33:24.550Z,98081.47
2017-12-25T05:33:56.199Z,98079.33
2017-12-25T05:34:27.851Z,98079.34
2017-12-25T05:34:59.500Z,98078.01
2017-12-25T05:35:31.144Z,98074.59
2017-12-25T05:36:02.780Z,98077.53
2017-12-25T05:36:34.422Z,98081.05
2017-12-25T05:37:06.127Z,98079.63
2017-12-25T05:37:37.768Z,98074.47
2017-12-25T05:38:09.411Z,98081.22
2017-12-25T05:38:41.044Z,98076.04
2017-12-25T05:39:12.693Z,98076.81
2017-12-25T05:39:44.336Z,98072.06
2017-12-25T05:40:15.979Z,98079.75
2017-12-25T05:40:47.620Z,98078.09
2017-12-25T05:41:19.257Z,98077.66
2017-12-25T05:41:50.895Z,98077.61
2017-12-25T05:42:22.572Z,98076.27
2017-12-25T05:42:54.216Z,98079.60
2017-12-25T05:43:25.860Z,98075.69
2017-12-25T05:43:57.504Z,98077.66
2017-12-25T05:44:29.155Z,98078.45
2017-12-25T05:45:00.791Z,98084.76
2017-12-25T05:45:32.428Z,98081.42
2017-12-25T05:46:04.119Z,98082.63
2017-12-25T05:46:35.755Z,98076.23
2017-12-25T05:47:07.397Z,98073.83
2017-12-25T05:47:39.080Z,98077.88
2017-12-25T05:48:10.728Z,98079.59
2017-12-25T05:48:42.379Z,98075.67
2017-12-25T05:49:14.024Z,98075.67
2017-12-25T05:49:45.676Z,98075.31
2017-12-25T05:50:17.321Z,98077.82
2017-12-25T05:50:48.967Z,98087.17
2017-12-25T05:51:20.614Z,98076.62
2017-12-25T05:51:52.251Z,98075.81
2017-12-25T05:52:23.903Z,98076.59
2017-12-25T05:52:55.600Z,98074.46
2017-12-25T05:53:27.244Z,98078.74
2017-12-25T05:53:58.879Z,98076.17
2017-12-25T05:54:30.545Z,98073.13
2017-12-25T05:55:02.195Z,98068.92
2017-12-25T05:55:33.839Z,98071.49
2017-12-25T05:56:05.493Z,98077.45
2017-12-25T05:56:37.139Z,98073.61
2017-12-25T05:57:08.775Z,98063.16
2017-12-25T05:57:40.420Z,98074.89
2017-12-25T05:58:12.108Z,98076.62
2017-12-25T05:58:43.800Z,98078.72
2017-12-25T05:59:15.450Z,98075.31
2017-12-25T05:59:47.106Z,98079.16
2017-12-25T06:00:18.760Z,98069.36
2017-12-25T06:00:50.403Z,98068.50
2017-12-25T06:01:22.048Z,98070.64
2017-12-25T06:01:53.692Z,98071.19
2017-12-25T06:02:25.334Z,98073.70
2017-12-25T06:02:56.985Z,98074.16
2017-12-25T06:03:28.619Z,98075.02
2017-12-25T06:04:00.304Z,98076.72
2017-12-25T06:04:31.984Z,98075.90
2017-12-25T06:05:03.626Z,98078.57
2017-12-25T06:05:35.260Z,98078.08
2017-12-25T06:06:06.896Z,98079.38
2017-12-25T06:06:38.535Z,98075.60
2017-12-25T06:07:10.166Z,98070.90
2017-12-25T06:07:41.808Z,98060.84
2017-12-25T06:08:13.451Z,98076.11
2017-12-25T06:08:45.092Z,98070.61
2017-12-25T06:09:16.787Z,98077.48
2017-12-25T06:09:48.440Z,98068.54
2017-12-25T06:10:20.088Z,98063.19
2017-12-25T06:10:51.733Z,98072.73
2017-12-25T06:11:23.385Z,98075.73
2017-12-25T06:11:55.033Z,98072.31
2017-12-25T06:12:26.688Z,98072.78
2017-12-25T06:12:58.338Z,98068.17
2017-12-25T06:13:29.989Z,98074.19
2017-12-25T06:14:01.631Z,98071.20
2017-12-25T06:14:33.312Z,98071.22
2017-12-25T06:15:04.957Z,98071.42
2017-12-25T06:15:36.599Z,98065.88
2017-12-25T06:16:08.232Z,98059.27
2017-12-25T06:16:39.871Z,98069.79
2017-12-25T06:17:11.507Z,98069.47
2017-12-25T06:17:43.203Z,98068.48
2017-12-25T06:18:14.848Z,98067.66
2017-12-25T06:18:46.496Z,98065.58
2017-12-25T06:19:18.138Z,98069.47
2017-12-25T06:19:49.786Z,98070.70
2017-12-25T06:20:21.490Z,98061.75
2017-12-25T06:20:53.123Z,98063.09
2017-12-25T06:21:24.763Z,98064.75
2017-12-25T06:21:56.403Z,98065.64
2017-12-25T06:22:28.039Z,98065.59
2017-12-25T06:22:59.698Z,98054.64
2017-12-25T06:23:31.340Z,98061.33
2017-12-25T06:24:02.984Z,98059.24
2017-12-25T06:24:34.680Z,98066.88
2017-12-25T06:25:06.319Z,98060.53
2017-12-25T06:25:37.963Z,98062.72
2017-12-25T06:26:09.605Z,98066.08
2017-12-25T06:26:41.256Z,98058.84
2017-12-25T06:27:12.900Z,98069.13
2017-12-25T06:27:44.552Z,98063.27
2017-12-25T06:28:16.199Z,98064.58
2017-12-25T06:28:47.840Z,98057.33
2017-12-25T06:29:19.482Z,98059.94
2017-12-25T06:29:51.159Z,98064.63
2017-12-25T06:30:22.847Z,98062.56
2017-12-25T06:30:54.495Z,98057.88
2017-12-25T06:31:26.126Z,98061.72
2017-12-25T06:31:57.768Z,98048.69
2017-12-25T06:32:29.422Z,98062.14
2017-12-25T06:33:01.069Z,98061.34
2017-12-25T06:33:32.705Z,98064.33
2017-12-25T06:34:04.344Z,98064.33
2017-12-25T06:34:35.983Z,98059.22
2017-12-25T06:35:07.667Z,98046.64
2017-12-25T06:35:39.307Z,98064.39
2017-12-25T06:36:10.950Z,98064.83
2017-12-25T06:36:42.592Z,98054.66
2017-12-25T06:37:14.239Z,98060.21
2017-12-25T06:37:45.879Z,98061.05
2017-12-25T06:38:17.523Z,98063.19
2017-12-25T06:38:49.178Z,98063.19
2017-12-25T06:39:20.818Z,98062.38
2017-12-25T06:39:52.508Z,98061.12
2017-12-25T06:40:24.179Z,98056.00
2017-12-25T06:40:55.816Z,98056.85
2017-12-25T06:41:27.454Z,98056.80
2017-12-25T06:41:59.135Z,98058.99
2017-12-25T06:42:30.774Z,98067.52
2017-12-25T06:43:02.415Z,98061.54
2017-12-25T06:43:34.064Z,98061.12
2017-12-25T06:44:05.704Z,98060.33
2017-12-25T06:44:37.339Z,98059.47
2017-12-25T06:45:09.028Z,98067.61
2017-12-25T06:45:40.663Z,98062.51
2017-12-25T06:46:12.304Z,98069.33
2017-12-25T06:46:43.992Z,98068.49
2017-12-25T06:47:15.636Z,98064.22
2017-12-25T06:47:47.276Z,98072.69
2017-12-25T06:48:18.919Z,98076.45
2017-12-25T06:48:50.605Z,98069.26
2017-12-25T06:49:22.249Z,98068.41
2017-12-25T06:49:53.889Z,98068.80
2017-12-25T06:50:25.537Z,98071.45
2017-12-25T06:50:57.177Z,98072.24
2017-12-25T06:51:28.819Z,98065.80
2017-12-25T06:52:00.452Z,98067.94
2017-12-25T06:52:32.100Z,98076.45
2017-12-25T06:53:03.784Z,98070.49
2017-12-25T06:53:35.435Z,98072.56
2017-12-25T06:54:07.207Z,98073.03
2017-12-25T06:54:38.847Z,98067.86
2017-12-25T06:55:10.495Z,98064.39
2017-12-25T06:55:42.130Z,98066.88
2017-12-25T06:56:13.768Z,98071.09
2017-12-25T06:56:45.412Z,98062.62
2017-12-25T06:57:17.050Z,98068.04
2017-12-25T06:57:48.697Z,98067.66
2017-12-25T06:58:20.347Z,98074.44
2017-12-25T06:58:52.005Z,98063.36
2017-12-25T06:59:23.684Z,98068.89
2017-12-25T06:59:55.325Z,98070.59
2017-12-25T07:00:26.977Z,98066.75
2017-12-25T07:00:58.625Z,98071.81
2017-12-25T07:01:30.263Z,98063.64
2017-12-25T07:02:01.903Z,98075.08
2017-12-25T07:02:33.547Z,98067.77
2017-12-25T07:03:05.197Z,98064.80
2017-12-25T07:03:36.838Z,98067.77
2017-12-25T07:04:08.536Z,98072.39
2017-12-25T07:04:40.180Z,98067.66
2017-12-25T07:05:11.818Z,98068.91
2017-12-25T07:05:43.468Z,98065.03
2017-12-25T07:06:15.112Z,98059.19
2017-12-25T07:06:46.752Z,98067.09
2017-12-25T07:07:18.395Z,98070.94
2017-12-25T07:07:50.036Z,98068.80
2017-12-25T07:08:21.684Z,98066.28
2017-12-25T07:08:53.320Z,98065.87
2017-12-25T07:09:25.008Z,98069.59
2017-12-25T07:09:56.653Z,98068.72
2017-12-25T07:10:28.291Z,98068.31
2017-12-25T07:11:00.002Z,98063.17
2017-12-25T07:11:31.646Z,98072.98
2017-12-25T07:12:03.302Z,98067.80
2017-12-25T07:12:34.947Z,98069.95
2017-12-25T07:13:06.592Z,98066.97
2017-12-25T07:13:38.235Z,98078.84
2017-12-25T07:14:09.878Z,98075.41
2017-12-25T07:14:41.543Z,98081.58
2017-12-25T07:15:13.191Z,98081.92
2017-12-25T07:15:44.826Z,98075.11
2017-12-25T07:16:16.507Z,98077.66
2017-12-25T07:16:48.147Z,98070.22
2017-12-25T07:17:19.792Z,98072.56
2017-12-25T07:17:51.432Z,98073.98
2017-12-25T07:18:23.075Z,98074.95
2017-12-25T07:18:54.740Z,98070.23
2017-12-25T07:19:26.441Z,98067.41
2017-12-25T07:19:58.075Z,98078.80
2017-12-25T07:20:29.736Z,98070.70
2017-12-25T07:21:01.396Z,98073.30
2017-12-25T07:21:33.216Z,98072.17
2017-12-25T07:22:04.943Z,98068.45
2017-12-25T07:22:36.582Z,98071.25
2017-12-25T07:23:08.223Z,98072.38
2017-12-25T07:23:40.072Z,98074.31
2017-12-25T07:24:11.788Z,98073.28
2017-12-25T07:24:43.495Z,98068.77
2017-12-25T07:25:15.238Z,98074.55
2017-12-25T07:25:46.876Z,98073.95
2017-12-25T07:26:18.529Z,98073.88
2017-12-25T07:26:50.172Z,98073.86
2017-12-25T07:27:21.829Z,98076.30
2017-12-25T07:27:54.385Z,98073.73
2017-12-25T07:28:26.031Z,98075.87
2017-12-25T07:28:57.674Z,98066.45
2017-12-25T07:29:29.498Z,98071.53
2017-12-25T07:30:01.319Z,98067.22
2017-12-25T07:30:33.042Z,98074.40
2017-12-25T07:31:04.942Z,98071.42
2017-12-25T07:31:36.826Z,98065.88
2017-12-25T07:32:08.475Z,98062.81
2017-12-25T07:32:40.235Z,98068.74
2017-12-25T07:33:11.924Z,98066.19
2017-12-25T07:33:43.618Z,98070.41
2017-12-25T07:34:15.264Z,98062.75
2017-12-25T07:34:46.907Z,98053.46
2017-12-25T07:35:18.543Z,98066.52
2017-12-25T07:35:50.188Z,98065.23
2017-12-25T07:36:22.003Z,98069.02
2017-12-25T07:36:53.736Z,98070.72
2017-12-25T07:37:25.714Z,98065.16
2017-12-25T07:37:57.565Z,98067.74
2017-12-25T07:38:29.240Z,98071.92
2017-12-25T07:39:00.939Z,98074.50
2017-12-25T07:39:32.585Z,98066.45
2017-12-25T07:40:04.235Z,98066.44
2017-12-25T07:40:35.889Z,98072.78
2017-12-25T07:41:07.530Z,98072.73
2017-12-25T07:41:39.187Z,98071.48
2017-12-25T07:42:10.852Z,98072.75
2017-12-25T07:42:42.504Z,98071.52
2017-12-25T07:43:14.143Z,98072.27
2017-12-25T07:43:45.829Z,98068.90
2017-12-25T07:44:17.507Z,98073.02
2017-12-25T07:44:49.147Z,98061.26
2017-12-25T07:45:20.783Z,98070.14
2017-12-25T07:45:52.429Z,98071.08
2017-12-25T07:46:24.069Z,98070.17
2017-12-25T07:46:55.708Z,98068.86
2017-12-25T07:47:27.343Z,98075.23
2017-12-25T07:47:58.979Z,98069.29
2017-12-25T07:48:30.623Z,98077.84
2017-12-25T07:49:02.309Z,98074.83
2017-12-25T07:49:33.991Z,98069.69
2017-12-25T07:50:05.685Z,98068.41
2017-12-25T07:50:37.343Z,98069.64
2017-12-25T07:51:08.985Z,98066.72
2017-12-25T07:51:40.706Z,98069.20
2017-12-25T07:52:12.360Z,98073.03
2017-12-25T07:52:44.001Z,98066.20
2017-12-25T07:53:15.652Z,98075.17
2017-12-25T07:53:47.339Z,98070.61
2017-12-25T07:54:18.999Z,98068.50
2017-12-25T07:54:50.640Z,98073.19
2017-12-25T07:55:22.495Z,98071.84
2017-12-25T07:55:54.148Z,98075.60
2017-12-25T07:56:25.792Z,98076.45
2017-12-25T07:56:57.436Z,98076.02
2017-12-25T07:57:29.080Z,98073.45
2017-12-25T07:58:00.723Z,98071.35
2017-12-25T07:58:32.404Z,98077.30
2017-12-25T07:59:04.112Z,98081.98
2017-12-25T07:59:35.788Z,98075.13
2017-12-25T08:00:07.428Z,98076.39
2017-12-25T08:00:39.104Z,98076.34
2017-12-25T08:01:10.858Z,98084.31
2017-12-25T08:01:42.501Z,98080.69
2017-12-25T08:02:14.145Z,98080.26
2017-12-25T08:02:45.777Z,98082.76
2017-12-25T08:03:17.420Z,98086.05
2017-12-25T08:03:49.064Z,98071.14
2017-12-25T08:04:20.748Z,98088.13
2017-12-25T08:04:52.395Z,98084.47
2017-12-25T08:05:24.043Z,98082.89
2017-12-25T08:05:55.792Z,98087.17
2017-12-25T08:06:27.472Z,98077.91
2017-12-25T08:06:59.111Z,98088.14
2017-12-25T08:07:30.743Z,98093.38
2017-12-25T08:08:02.393Z,98095.57
2017-12-25T08:08:34.040Z,98091.44
2017-12-25T08:09:05.683Z,98085.14
2017-12-25T08:09:37.328Z,98097.80
2017-12-25T08:10:08.973Z,98060.18
2017-12-25T08:10:40.628Z,98089.98
2017-12-25T08:11:12.274Z,98088.98
2017-12-25T08:11:43.915Z,98093.00
2017-12-25T08:12:15.556Z,98097.39
2017-12-25T08:12:47.188Z,98092.38
2017-12-25T08:13:18.871Z,98086.16
2017-12-25T08:13:50.517Z,98096.42
2017-12-25T08:14:22.159Z,98095.78
2017-12-25T08:14:53.793Z,98093.82
2017-12-25T08:15:25.436Z,98086.80
2017-12-25T08:15:57.080Z,98085.27
2017-12-25T08:16:28.715Z,98085.91
2017-12-25T08:17:00.361Z,98092.98
2017-12-25T08:17:32.033Z,98086.91
2017-12-25T08:18:03.685Z,98088.50
2017-12-25T08:18:35.328Z,98096.94
2017-12-25T08:19:07.037Z,98090.89
2017-12-25T08:19:38.678Z,98089.07
2017-12-25T08:20:10.320Z,98084.41
2017-12-25T08:20:41.972Z,98091.16
2017-12-25T08:21:13.616Z,98088.55
2017-12-25T08:21:45.256Z,98094.02
2017-12-25T08:22:16.896Z,98090.13
2017-12-25T08:22:48.532Z,98092.62
2017-12-25T08:23:20.169Z,98086.98
2017-12-25T08:23:51.827Z,98084.83
2017-12-25T08:24:23.513Z,98091.60
2017-12-25T08:24:55.147Z,98094.58
2017-12-25T08:25:26.788Z,98091.97
2017-12-25T08:25:58.432Z,98077.66
2017-12-25T08:26:30.097Z,98094.87
2017-12-25T08:27:01.796Z,98094.03
2017-12-25T08:27:33.436Z,98095.23
2017-12-25T08:28:05.079Z,98091.34
2017-12-25T08:28:36.740Z,98087.89
2017-12-25T08:29:08.379Z,98091.72
2017-12-25T08:29:40.023Z,98090.00
2017-12-25T08:30:11.664Z,98093.83
2017-12-25T08:30:43.308Z,98088.68
2017-12-25T08:31:14.943Z,98091.28
2017-12-25T08:31:46.585Z,98088.25
2017-12-25T08:32:18.276Z,98093.78
2017-12-25T08:32:49.920Z,98089.04
2017-12-25T08:33:21.564Z,98089.84
2017-12-25T08:33:53.212Z,98049.02
2017-12-25T08:34:24.852Z,98083.98
2017-12-25T08:34:56.499Z,98083.13
2017-12-25T08:35:28.151Z,98086.30
2017-12-25T08:35:59.815Z,98091.84
2017-12-25T08:36:31.459Z,98087.51
2017-12-25T08:37:03.099Z,98093.11
2017-12-25T08:37:34.790Z,98086.84
2017-12-25T08:38:06.451Z,98070.86
2017-12-25T08:38:38.103Z,98095.73
2017-12-25T08:39:09.747Z,98091.95
2017-12-25T08:39:41.439Z,98094.09
2017-12-25T08:40:13.084Z,98093.66
2017-12-25T08:40:44.720Z,98093.13
2017-12-25T08:41:16.360Z,98092.27
2017-12-25T08:41:48.007Z,98092.75
2017-12-25T08:42:19.647Z,98094.03
2017-12-25T08:42:51.292Z,98092.33
2017-12-25T08:43:22.940Z,98094.02
2017-12-25T08:43:54.588Z,98094.40
2017-12-25T08:44:26.255Z,98094.01
2017-12-25T08:44:57.980Z,98092.62
2017-12-25T08:45:29.628Z,98099.02
2017-12-25T08:46:01.312Z,98092.98
2017-12-25T08:46:32.951Z,98097.72
2017-12-25T08:47:04.608Z,98096.83
2017-12-25T08:47:36.247Z,98091.33
2017-12-25T08:48:07.896Z,98096.88
2017-12-25T08:48:39.536Z,98094.33
2017-12-25T08:49:11.180Z,98095.28
2017-12-25T08:49:42.820Z,98093.09
2017-12-25T08:50:14.726Z,98094.40
2017-12-25T08:50:46.367Z,98095.11
2017-12-25T08:51:18.051Z,98097.30
2017-12-25T08:51:49.700Z,98096.88
2017-12-25T08:52:21.339Z,98097.36
2017-12-25T08:52:52.984Z,98101.25
2017-12-25T08:53:24.672Z,98101.63
2017-12-25T08:53:56.321Z,98101.55
2017-12-25T08:54:27.977Z,98097.30
2017-12-25T08:54:59.625Z,98093.47
2017-12-25T08:55:31.324Z,98101.14
2017-12-25T08:56:03.012Z,98103.70
2017-12-25T08:56:34.695Z,98097.66
2017-12-25T08:57:06.418Z,98099.31
2017-12-25T08:57:38.064Z,98098.04
2017-12-25T08:58:09.771Z,98098.50
2017-12-25T08:58:41.420Z,98094.25
2017-12-25T08:59:13.068Z,98101.13
2017-12-25T08:59:44.708Z,98095.13
2017-12-25T09:00:16.352Z,98098.99
2017-12-25T09:00:48.036Z,98101.16
2017-12-25T09:01:19.728Z,98105.83
2017-12-25T09:01:51.379Z,98102.84
2017-12-25T09:02:23.024Z,98099.86
2017-12-25T09:02:54.681Z,98104.12
2017-12-25T09:03:26.327Z,98107.95
2017-12-25T09:03:58.104Z,98105.34
2017-12-25T09:04:29.752Z,98101.57
2017-12-25T09:05:01.396Z,98104.98
2017-12-25T09:05:33.031Z,98104.92
2017-12-25T09:06:04.677Z,98100.72
2017-12-25T09:06:36.379Z,98102.86
2017-12-25T09:07:08.036Z,98111.36
2017-12-25T09:07:39.671Z,98103.69
2017-12-25T09:08:11.314Z,98108.39
2017-12-25T09:08:42.967Z,98103.69
2017-12-25T09:09:14.615Z,98098.09
2017-12-25T09:09:46.267Z,98107.97
2017-12-25T09:10:17.940Z,98106.66
2017-12-25T09:10:49.593Z,98109.61
2017-12-25T09:11:21.414Z,98108.45
2017-12-25T09:11:53.077Z,98106.26
2017-12-25T09:12:24.764Z,98111.78
2017-12-25T09:12:56.401Z,98112.63
2017-12-25T09:13:28.054Z,98106.25
2017-12-25T09:13:59.696Z,98112.23
2017-12-25T09:14:31.349Z,98104.63
2017-12-25T09:15:02.987Z,98106.38
2017-12-25T09:15:34.655Z,98107.17
2017-12-25T09:16:06.315Z,98108.06
2017-12-25T09:16:37.975Z,98105.90
2017-12-25T09:17:09.620Z,98102.95
2017-12-25T09:17:41.300Z,98104.23
2017-12-25T09:18:12.984Z,98108.01
2017-12-25T09:18:44.624Z,98102.41
2017-12-25T09:19:16.308Z,98102.84
2017-12-25T09:19:47.985Z,98105.03
2017-12-25T09:20:19.759Z,98099.06
2017-12-25T09:20:51.489Z,98102.44
2017-12-25T09:21:23.139Z,98101.63
2017-12-25T09:21:54.780Z,98102.96
2017-12-25T09:22:26.419Z,98096.20
2017-12-25T09:22:58.060Z,98100.79
2017-12-25T09:23:29.707Z,98099.88
2017-12-25T09:24:01.408Z,98105.47
2017-12-25T09:24:33.101Z,98103.39
2017-12-25T09:25:04.759Z,98090.79
2017-12-25T09:25:36.431Z,98103.82
2017-12-25T09:26:08.072Z,98105.96
2017-12-25T09:26:39.717Z,98101.32
2017-12-25T09:27:11.359Z,98103.04
2017-12-25T09:27:43.001Z,98100.96
2017-12-25T09:28:14.647Z,98084.91
2017-12-25T09:28:46.285Z,98098.82
2017-12-25T09:29:17.922Z,98097.55
2017-12-25T09:29:49.607Z,98095.42
2017-12-25T09:30:21.312Z,98098.03
2017-12-25T09:30:52.968Z,98087.39
2017-12-25T09:31:24.604Z,98095.05
2017-12-25T09:31:56.288Z,98094.27
2017-12-25T09:32:27.970Z,98090.01
2017-12-25T09:32:59.818Z,98093.84
2017-12-25T09:33:31.459Z,98088.32
2017-12-25T09:34:03.104Z,98087.93
2017-12-25T09:34:35.417Z,98090.08
2017-12-25T09:35:07.060Z,98085.28
2017-12-25T09:35:38.825Z,98094.75
2017-12-25T09:36:10.473Z,98087.45
2017-12-25T09:36:42.121Z,98093.80
2017-12-25T09:37:13.855Z,98087.45
2017-12-25T09:37:45.480Z,98091.70
2017-12-25T09:38:17.124Z,98084.06
2017-12-25T09:38:48.765Z,98089.17
2017-12-25T09:39:20.412Z,98090.44
2017-12-25T09:39:52.076Z,98084.05
2017-12-25T09:40:24.520Z,98082.83
2017-12-25T09:40:56.160Z,98087.89
2017-12-25T09:41:27.795Z,98078.95
2017-12-25T09:41:59.492Z,98080.77
2017-12-25T09:42:31.144Z,98081.18
2017-12-25T09:43:02.796Z,98075.66
2017-12-25T09:43:34.484Z,98078.64
2017-12-25T09:44:06.109Z,98078.65
2017-12-25T09:44:37.817Z,98075.23
2017-12-25T09:45:09.458Z,98077.37
2017-12-25T09:45:41.104Z,98073.91
2017-12-25T09:46:12.744Z,98078.65
2017-12-25T09:46:44.379Z,98077.78
2017-12-25T09:47:16.085Z,98073.58
2017-12-25T09:47:47.743Z,98077.83
2017-12-25T09:48:19.375Z,98069.69
2017-12-25T09:48:51.024Z,98067.14
2017-12-25T09:49:22.669Z,98068.83
2017-12-25T09:49:54.312Z,98070.55
2017-12-25T09:50:25.948Z,98071.77
2017-12-25T09:50:57.584Z,98033.94
2017-12-25T09:51:29.348Z,98076.02
2017-12-25T09:52:01.058Z,98068.78
2017-12-25T09:52:32.748Z,98069.64
2017-12-25T09:53:04.388Z,98068.83
2017-12-25T09:53:36.032Z,98065.38
2017-12-25T09:54:07.704Z,98070.91
2017-12-25T09:54:39.340Z,98064.11
2017-12-25T09:55:11.059Z,98065.01
2017-12-25T09:55:42.739Z,98066.59
2017-12-25T09:56:14.890Z,98065.80
2017-12-25T09:56:46.662Z,98064.47
2017-12-25T09:57:18.496Z,98059.36
2017-12-25T09:57:51.315Z,98067.92
2017-12-25T09:58:22.987Z,98062.45
2017-12-25T09:58:54.631Z,98061.11
2017-12-25T09:59:26.316Z,98064.89
2017-12-25T09:59:58.005Z,98065.75
2017-12-25T10:00:29.862Z,98062.39
2017-12-25T10:01:01.512Z,98060.63
2017-12-25T10:01:33.292Z,98060.27
2017-12-25T10:02:04.951Z,98064.93
2017-12-25T10:02:36.600Z,98064.94
2017-12-25T10:03:08.257Z,98062.88
2017-12-25T10:03:39.913Z,98058.88
2017-12-25T10:04:11.552Z,98053.66
2017-12-25T10:04:43.238Z,98053.82
2017-12-25T10:05:14.891Z,98055.43
2017-12-25T10:05:47.637Z,98060.44
2017-12-25T10:06:19.328Z,98061.23
2017-12-25T10:06:50.971Z,98058.13
2017-12-25T10:07:22.612Z,98057.76
2017-12-25T10:07:54.256Z,98054.70
2017-12-25T10:08:25.960Z,98052.09
2017-12-25T10:08:57.605Z,98058.41
2017-12-25T10:09:29.261Z,98054.44
2017-12-25T10:10:00.917Z,98049.76
2017-12-25T10:10:32.563Z,98052.30
2017-12-25T10:11:04.233Z,98053.70
2017-12-25T10:11:35.879Z,98049.12
2017-12-25T10:12:07.521Z,98052.67
2017-12-25T10:12:39.156Z,98044.73
2017-12-25T10:13:10.795Z,98042.72
2017-12-25T10:13:42.480Z,98041.86
2017-12-25T10:14:14.123Z,98045.30
2017-12-25T10:14:45.759Z,98038.54
2017-12-25T10:15:17.408Z,98038.61
2017-12-25T10:15:49.048Z,98039.94
2017-12-25T10:16:20.687Z,98041.28
2017-12-25T10:16:52.343Z,98041.11
2017-12-25T10:17:23.980Z,98041.37
2017-12-25T10:17:55.616Z,98048.27
2017-12-25T10:18:27.264Z,98039.24
2017-12-25T10:18:58.944Z,98043.34
2017-12-25T10:19:30.636Z,98043.27
2017-12-25T10:20:02.275Z,98019.52
2017-12-25T10:20:33.908Z,98042.99
2017-12-25T10:21:05.543Z,98040.42
2017-12-25T10:21:37.179Z,98035.81
2017-12-25T10:22:08.816Z,98037.95
2017-12-25T10:22:40.459Z,98037.86
2017-12-25T10:23:12.104Z,98029.33
2017-12-25T10:23:43.755Z,98030.63
2017-12-25T10:24:15.403Z,98036.04
2017-12-25T10:24:47.086Z,98034.23
2017-12-25T10:25:18.724Z,98032.98
2017-12-25T10:25:50.359Z,98031.47
2017-12-25T10:26:22.009Z,98033.17
2017-12-25T10:26:53.660Z,98023.36
2017-12-25T10:27:25.312Z,98031.25
2017-12-25T10:27:56.956Z,98019.34
2017-12-25T10:28:28.597Z,98033.55
2017-12-25T10:29:00.236Z,98031.34
2017-12-25T10:29:31.871Z,98027.81
2017-12-25T10:30:03.568Z,98032.42
2017-12-25T10:30:35.211Z,98030.98
2017-12-25T10:31:06.860Z,98027.33
2017-12-25T10:31:38.499Z,98025.33
2017-12-25T10:32:10.151Z,98033.97
2017-12-25T10:32:41.796Z,98022.80
2017-12-25T10:33:13.433Z,98021.77
2017-12-25T10:33:45.071Z,98026.32
2017-12-25T10:34:16.713Z,98026.20
2017-12-25T10:34:48.356Z,98021.39
2017-12-25T10:35:20.022Z,98025.19
2017-12-25T10:35:51.693Z,98018.33
2017-12-25T10:36:23.336Z,98021.81
2017-12-25T10:36:54.981Z,98023.44
2017-12-25T10:37:26.629Z,98022.64
2017-12-25T10:37:58.285Z,98018.80
2017-12-25T10:38:29.920Z,98022.64
2017-12-25T10:39:01.561Z,98021.09
2017-12-25T10:39:33.204Z,98020.73
2017-12-25T10:40:04.876Z,98023.62
2017-12-25T10:40:36.576Z,98022.23
2017-12-25T10:41:08.219Z,98022.14
2017-12-25T10:41:39.864Z,98022.51
2017-12-25T10:42:11.533Z,98017.72
2017-12-25T10:42:43.179Z,98021.05
2017-12-25T10:43:14.812Z,98021.95
2017-12-25T10:43:46.453Z,98015.42
2017-12-25T10:44:18.097Z,98017.06
2017-12-25T10:44:49.752Z,98020.00
2017-12-25T10:45:21.415Z,98019.15
2017-12-25T10:45:53.095Z,98017.85
2017-12-25T10:46:24.727Z,98016.88
2017-12-25T10:46:56.419Z,98014.33
2017-12-25T10:47:28.123Z,98016.50
2017-12-25T10:47:59.768Z,98020.70
2017-12-25T10:48:31.419Z,98011.05
2017-12-25T10:49:03.056Z,98013.83
2017-12-25T10:49:34.696Z,98016.73
2017-12-25T10:50:06.363Z,98012.91
2017-12-25T10:50:38.039Z,98011.20
2017-12-25T10:51:09.680Z,98010.34
2017-12-25T10:51:41.327Z,98006.08
2017-12-25T10:52:12.960Z,98008.56
2017-12-25T10:52:44.608Z,98014.91
2017-12-25T10:53:16.277Z,98008.01
2017-12-25T10:53:47.975Z,98013.95
2017-12-25T10:54:20.287Z,98015.23
2017-12-25T10:54:51.919Z,98007.54
2017-12-25T10:55:23.706Z,98008.82
2017-12-25T10:55:55.363Z,98009.27
2017-12-25T10:56:26.996Z,98012.66
2017-12-25T10:56:58.663Z,98005.83
2017-12-25T10:57:30.307Z,98004.58
2017-12-25T10:58:01.944Z,98004.97
2017-12-25T10:58:33.617Z,98009.97
2017-12-25T10:59:05.322Z,98003.48
2017-12-25T10:59:36.967Z,98008.88
2017-12-25T11:00:09.300Z,98006.18
2017-12-25T11:00:46.684Z,98008.02
2017-12-25T11:01:18.348Z,98010.34
2017-12-25T11:01:49.991Z,98001.73
2017-12-25T11:02:21.632Z,98006.28
2017-12-25T11:02:53.268Z,98003.16
2017-12-25T11:03:24.923Z,98003.95
2017-12-25T11:03:56.637Z,98003.02
2017-12-25T11:04:28.371Z,97999.52
2017-12-25T11:05:00.041Z,98002.92
2017-12-25T11:05:31.704Z,97993.01
2017-12-25T11:06:03.440Z,98006.03
2017-12-25T11:06:35.085Z,97999.97
2017-12-25T11:07:06.727Z,97999.14
2017-12-25T11:07:38.380Z,97997.08
2017-12-25T11:08:10.043Z,97995.72
2017-12-25T11:08:41.679Z,97999.48
2017-12-25T11:09:13.324Z,97999.40
2017-12-25T11:09:44.963Z,97995.57
2017-12-25T11:10:16.643Z,98000.14
2017-12-25T11:10:48.318Z,97999.70
2017-12-25T11:11:20.024Z,97997.90
2017-12-25T11:11:51.675Z,97998.67
2017-12-25T11:12:23.312Z,97981.50